Time;durP1;ratioP1;P1;durP2;ratioP2;P2;SDS_P1;SDS_P2;PMS_P1;PMS_P2;Temp;Humidity;BMP_temperature;BMP_pressure;BME280_temperature;BME280_humidity;BME280_pressure;Samples;Min_cycle;Max_cycle;Signal;HPM_P1;HPM_P2
2022/02/02 00:03:18;;;;;;;1.47;1.37;;;7.50;46.50;;;;;;10535705;28;20246;-76
2022/02/02 00:08:25;;;;;;;1.40;1.30;;;7.50;46.90;;;;;;10536769;28;20231;-76
2022/02/02 00:13:38;;;;;;;1.40;1.30;;;7.60;46.60;;;;;;10537152;28;20230;-76
2022/02/02 00:18:52;;;;;;;1.10;1.10;;;7.60;46.40;;;;;;10537541;28;20238;-76
2022/02/02 00:24:02;;;;;;;1.10;1.00;;;7.60;46.50;;;;;;10538202;28;20558;-76
2022/02/02 00:29:10;;;;;;;1.20;1.17;;;7.70;46.50;;;;;;10538086;28;20227;-76
2022/02/02 00:34:19;;;;;;;1.30;1.20;;;7.70;46.30;;;;;;10536781;28;20295;-76
2022/02/02 00:39:23;;;;;;;1.70;1.60;;;7.80;46.40;;;;;;10535867;28;20231;-76
2022/02/02 00:44:27;;;;;;;1.50;1.40;;;7.80;46.20;;;;;;10537645;28;20321;-76
2022/02/02 00:49:32;;;;;;;1.70;1.60;;;7.80;46.20;;;;;;10536443;28;20239;-77
2022/02/02 00:54:35;;;;;;;2.03;1.60;;;7.80;46.20;;;;;;10537244;28;20231;-76
2022/02/02 00:59:38;;;;;;;2.30;1.87;;;7.80;46.20;;;;;;10537419;28;20257;-76
2022/02/02 01:04:43;;;;;;;1.60;1.50;;;7.90;46.30;;;;;;10543583;28;20243;-76
2022/02/02 01:09:51;;;;;;;2.00;1.60;;;7.90;46.50;;;;;;10543828;28;20237;-76
2022/02/02 01:20:34;;;;;;;1.47;1.30;;;7.90;46.20;;;;;;10544053;28;20771;-76
2022/02/02 01:31:00;;;;;;;1.63;1.30;;;8.00;46.20;;;;;;10543962;28;20234;-76
2022/02/02 01:36:05;;;;;;;1.33;1.23;;;8.00;46.30;;;;;;10529903;28;20234;-76
2022/02/02 01:41:16;;;;;;;1.90;1.47;;;8.00;46.50;;;;;;10515467;28;20262;-76
2022/02/02 01:46:21;;;;;;;1.50;1.40;;;8.10;46.40;;;;;;10516890;28;20226;-76
2022/02/02 01:56:45;;;;;;;2.37;1.40;;;8.20;46.60;;;;;;10475243;28;20234;-76
2022/02/02 02:01:48;;;;;;;2.33;1.40;;;8.20;46.50;;;;;;10510002;28;20338;-76
2022/02/02 02:06:53;;;;;;;2.07;1.23;;;8.30;46.40;;;;;;10523562;28;20707;-76
2022/02/02 02:11:58;;;;;;;1.80;1.40;;;8.30;46.40;;;;;;10514375;28;20224;-76
2022/02/02 02:17:01;;;;;;;1.70;1.60;;;8.30;46.30;;;;;;10513078;28;20232;-76
2022/02/02 02:22:10;;;;;;;1.60;1.50;;;8.20;46.20;;;;;;10512531;28;20230;-75
2022/02/02 02:27:18;;;;;;;1.70;1.57;;;8.20;46.40;;;;;;10513782;28;20223;-76
2022/02/02 02:32:36;;;;;;;1.70;1.60;;;8.20;46.40;;;;;;10519751;28;20597;-76
2022/02/02 02:37:58;;;;;;;1.47;1.37;;;8.20;46.30;;;;;;10515710;28;20605;-77
2022/02/02 02:59:31;;;;;;;1.57;1.10;;;8.10;46.00;;;;;;10508471;28;20227;-76
2022/02/02 03:31:31;;;;;;;1.87;1.23;;;8.20;46.10;;;;;;10507010;28;20227;-77
2022/02/02 03:58:14;;;;;;;2.77;1.40;;;8.30;46.20;;;;;;10508294;28;20239;-77
2022/02/02 04:03:37;;;;;;;2.33;1.67;;;8.30;46.30;;;;;;10506183;28;20245;-77
2022/02/02 04:08:40;;;;;;;3.13;1.57;;;8.30;46.20;;;;;;10508898;28;20235;-77
2022/02/02 04:51:41;;;;;;;8.63;2.60;;;8.50;46.10;;;;;;10539101;28;20231;-77
2022/02/02 05:07:50;;;;;;;9.43;2.43;;;8.60;46.00;;;;;;10459563;28;20223;-77
2022/02/02 05:18:27;;;;;;;7.90;2.47;;;8.70;46.00;;;;;;10474259;28;20684;-77
2022/02/02 05:45:33;;;;;;;11.50;2.97;;;8.80;45.80;;;;;;10536649;28;20737;-77
2022/02/02 05:51:00;;;;;;;7.87;2.53;;;8.80;45.80;;;;;;10536202;28;20234;-76
2022/02/02 05:56:06;;;;;;;9.63;2.77;;;8.80;45.50;;;;;;10536885;28;20227;-77
2022/02/02 06:01:11;;;;;;;8.73;3.00;;;8.90;45.40;;;;;;10536533;28;20231;-76
2022/02/02 06:06:15;;;;;;;9.27;2.87;;;8.90;45.30;;;;;;10536457;28;20232;-76
2022/02/02 06:11:22;;;;;;;7.77;3.07;;;8.90;45.20;;;;;;10535555;28;20262;-76
2022/02/02 06:16:27;;;;;;;11.83;2.97;;;8.90;44.60;;;;;;10534066;28;20388;-76
2022/02/02 06:21:32;;;;;;;10.27;2.80;;;8.90;44.50;;;;;;10533895;28;20746;-76
2022/02/02 06:26:37;;;;;;;5.90;2.43;;;8.90;44.20;;;;;;10535076;28;20235;-77
2022/02/02 06:31:42;;;;;;;7.03;2.70;;;8.90;44.20;;;;;;10534633;28;20232;-76
2022/02/02 06:36:47;;;;;;;7.77;3.10;;;8.90;44.20;;;;;;10535209;28;20227;-76
2022/02/02 06:41:54;;;;;;;8.07;2.70;;;8.90;44.20;;;;;;10536037;28;20228;-76
2022/02/02 06:46:57;;;;;;;6.37;2.20;;;8.90;43.90;;;;;;10535414;28;20265;-76
2022/02/02 06:52:07;;;;;;;6.67;2.27;;;8.80;44.40;;;;;;10524894;28;20224;-75
2022/02/02 06:57:18;;;;;;;7.87;2.33;;;8.80;43.90;;;;;;10521995;28;20233;-75
2022/02/02 07:02:36;;;;;;;6.50;2.13;;;8.70;43.30;;;;;;10532164;28;20267;-76
2022/02/02 07:07:54;;;;;;;9.20;2.67;;;8.80;43.60;;;;;;10533605;28;20780;-76
2022/02/02 07:13:17;;;;;;;7.30;2.50;;;8.80;43.60;;;;;;10532653;28;20231;-77
2022/02/02 07:18:31;;;;;;;10.40;2.50;;;8.80;43.20;;;;;;10493586;28;20259;-78
2022/02/02 07:23:53;;;;;;;9.07;2.77;;;8.90;44.00;;;;;;10494879;28;20228;-77
2022/02/02 07:29:04;;;;;;;6.27;2.43;;;9.00;44.00;;;;;;10491576;28;20228;-78
2022/02/02 07:34:20;;;;;;;8.20;2.60;;;9.00;43.90;;;;;;10536196;28;20230;-78
2022/02/02 07:39:27;;;;;;;9.30;2.63;;;9.00;43.50;;;;;;10533948;28;20321;-75
2022/02/02 07:44:36;;;;;;;11.00;3.07;;;9.10;43.60;;;;;;10533454;28;20228;-76
2022/02/02 07:49:48;;;;;;;12.03;2.83;;;9.10;43.50;;;;;;10533525;28;20242;-76
2022/02/02 07:54:57;;;;;;;10.80;2.87;;;9.10;43.50;;;;;;10533228;28;20234;-76
2022/02/02 08:00:05;;;;;;;10.27;2.83;;;9.10;43.60;;;;;;10533779;28;20238;-77
2022/02/02 08:05:10;;;;;;;8.17;2.97;;;9.20;43.60;;;;;;10532689;28;20247;-76
2022/02/02 08:10:17;;;;;;;10.67;3.03;;;9.20;43.60;;;;;;10532239;28;20239;-77
2022/02/02 08:15:26;;;;;;;10.13;2.80;;;9.20;43.60;;;;;;10533212;28;20656;-76
2022/02/02 08:20:30;;;;;;;11.73;3.13;;;9.30;43.10;;;;;;10533905;28;20227;-76
2022/02/02 08:25:34;;;;;;;7.60;2.80;;;9.30;43.30;;;;;;10532173;28;20227;-77
2022/02/02 08:30:42;;;;;;;6.70;2.30;;;9.30;43.20;;;;;;10532258;28;20232;-76
2022/02/02 08:35:50;;;;;;;9.23;2.57;;;9.40;42.80;;;;;;10532067;28;20227;-76
2022/02/02 08:40:57;;;;;;;8.23;2.67;;;9.40;43.30;;;;;;10523017;28;20387;-77
2022/02/02 08:46:06;;;;;;;7.13;2.20;;;9.40;43.30;;;;;;10491508;28;20239;-76
2022/02/02 08:51:13;;;;;;;9.73;2.60;;;9.40;43.50;;;;;;10490391;28;20232;-75
2022/02/02 08:56:36;;;;;;;10.93;2.83;;;9.30;43.40;;;;;;10490510;28;20236;-76
2022/02/02 09:01:42;;;;;;;10.03;2.97;;;9.30;43.50;;;;;;10585492;22;20219;-72
2022/02/02 09:06:45;;;;;;;8.83;3.07;;;9.40;43.60;;;;;;10562340;28;20246;-72
2022/02/02 09:33:50;;;;;;;13.17;4.03;;;9.30;43.70;;;;;;10569256;27;20215;-70
2022/02/02 09:38:55;;;;;;;8.73;3.70;;;9.30;43.90;;;;;;10570310;27;20237;-70
2022/02/02 09:44:01;;;;;;;12.83;3.70;;;9.40;44.00;;;;;;10573155;27;20304;-70
2022/02/02 09:49:11;;;;;;;11.37;3.50;;;9.40;44.10;;;;;;10567368;27;20687;-70
2022/02/02 09:54:20;;;;;;;9.93;3.20;;;9.50;43.90;;;;;;10566771;27;20226;-70
2022/02/02 09:59:32;;;;;;;7.73;2.30;;;9.50;43.80;;;;;;10570814;27;20348;-76
2022/02/02 10:04:45;;;;;;;5.93;2.67;;;9.50;43.60;;;;;;10568103;27;20253;-71
2022/02/02 10:10:11;;;;;;;7.30;2.80;;;9.50;43.30;;;;;;10568697;27;20844;-71
2022/02/02 10:15:18;;;;;;;8.87;3.20;;;9.50;43.60;;;;;;10570166;27;20223;-70
2022/02/02 10:20:25;;;;;;;8.80;3.37;;;9.50;43.90;;;;;;10568700;27;20250;-70
2022/02/02 10:25:31;;;;;;;10.13;3.33;;;9.50;44.10;;;;;;10570933;27;20231;-70
2022/02/02 10:30:35;;;;;;;5.77;2.50;;;9.60;44.00;;;;;;10571781;27;20243;-70
2022/02/02 10:35:41;;;;;;;4.73;1.90;;;9.60;43.80;;;;;;10569340;27;20219;-70
2022/02/02 10:41:01;;;;;;;3.30;1.73;;;9.60;43.80;;;;;;10562838;27;20239;-70
2022/02/02 10:46:12;;;;;;;3.97;1.80;;;9.60;43.80;;;;;;10562430;27;20230;-71
2022/02/02 10:51:23;;;;;;;7.13;2.00;;;9.60;43.70;;;;;;10568245;27;20273;-71
2022/02/02 10:56:35;;;;;;;9.57;3.30;;;9.50;43.70;;;;;;10572806;27;21159;-70
2022/02/02 11:06:36;;;;;;;8.40;2.80;;;9.50;44.00;;;;;;10562549;27;20234;-71
2022/02/02 11:07:15;;;;;;;9.03;3.70;;;9.40;44.10;;;;;;10565193;27;20227;-71
2022/02/02 11:12:22;;;;;;;9.27;3.17;;;9.40;44.60;;;;;;10569610;27;20239;-70
2022/02/02 11:17:32;;;;;;;4.93;2.57;;;9.40;44.70;;;;;;10572925;27;20235;-72
2022/02/02 11:22:46;;;;;;;6.67;2.80;;;9.40;44.70;;;;;;10568339;27;20702;-73
2022/02/02 11:27:50;;;;;;;6.23;2.43;;;9.30;45.00;;;;;;10558751;27;20593;-73
2022/02/02 11:32:58;;;;;;;3.80;1.90;;;9.20;44.90;;;;;;10542203;27;20223;-71
2022/02/02 11:38:06;;;;;;;4.77;2.10;;;9.20;45.10;;;;;;10551510;27;20234;-72
2022/02/02 11:43:14;;;;;;;5.07;2.10;;;9.20;45.50;;;;;;10548566;27;20219;-71
2022/02/02 11:49:08;;;;;;;6.17;2.53;;;9.20;45.30;;;;;;10555625;27;20268;-72
2022/02/02 11:54:15;;;;;;;6.40;2.47;;;9.30;44.50;;;;;;10549901;27;20232;-72
2022/02/02 11:59:53;;;;;;;5.73;2.17;;;9.40;44.80;;;;;;10550004;27;20741;-71
2022/02/02 12:05:09;;;;;;;9.03;2.30;;;9.50;44.50;;;;;;10556077;27;20249;-73
2022/02/02 12:10:21;;;;;;;5.17;2.00;;;9.50;44.50;;;;;;10542750;27;20222;-72
2022/02/02 12:47:59;;;;;;;3.03;1.60;;;10.10;41.60;;;;;;10541675;28;20265;-68
2022/02/02 12:58:33;;;;;;;5.43;1.77;;;10.10;40.40;;;;;;10547078;27;20231;-68
2022/02/02 13:03:41;;;;;;;3.33;1.57;;;10.10;41.20;;;;;;10552120;27;20227;-67
2022/02/02 13:08:47;;;;;;;5.57;2.17;;;10.00;40.40;;;;;;10553234;27;20230;-68
2022/02/02 13:13:51;;;;;;;4.60;1.63;;;10.00;41.30;;;;;;10577805;27;20570;-68
2022/02/02 13:19:01;;;;;;;5.77;1.83;;;10.00;41.20;;;;;;10570356;27;20234;-67
2022/02/02 13:24:11;;;;;;;4.93;1.80;;;10.00;41.50;;;;;;10575617;27;20222;-68
2022/02/02 13:29:25;;;;;;;5.07;1.87;;;9.90;42.40;;;;;;10582246;27;20314;-68
2022/02/02 13:34:41;;;;;;;4.63;2.20;;;9.80;42.20;;;;;;10572135;27;20230;-68
2022/02/02 13:51:07;;;;;;;4.67;2.60;;;9.70;42.10;;;;;;10572329;27;20257;-72
2022/02/02 13:56:30;;;;;;;7.87;2.30;;;9.70;42.40;;;;;;10571164;27;20234;-72
2022/02/02 14:01:41;;;;;;;4.47;2.10;;;9.60;41.70;;;;;;10574861;27;20229;-72
2022/02/02 14:06:53;;;;;;;7.27;2.23;;;9.60;42.20;;;;;;10568997;27;20227;-72
2022/02/02 14:33:21;;;;;;;5.30;2.37;;;9.70;41.90;;;;;;10575865;27;20758;-72
2022/02/02 14:38:26;;;;;;;4.63;2.30;;;9.70;41.60;;;;;;10572320;27;20290;-72
2022/02/02 14:43:46;;;;;;;5.03;1.93;;;9.70;41.70;;;;;;10577487;27;20613;-72
2022/02/02 14:48:54;;;;;;;4.93;2.30;;;9.80;41.90;;;;;;10572590;27;20253;-72
2022/02/02 14:54:07;;;;;;;3.67;2.23;;;9.80;41.40;;;;;;10580158;27;20225;-72
2022/02/02 15:16:45;;;;;;;3.20;1.90;;;9.90;40.80;;;;;;10573856;27;20922;-73
2022/02/02 15:31:44;;;;;;;3.20;1.87;;;9.80;40.70;;;;;;10576138;27;20254;-68
2022/02/02 15:58:43;;;;;;;7.63;2.70;;;9.80;40.20;;;;;;10570640;27;20222;-72
2022/02/02 16:03:46;;;;;;;4.93;2.63;;;9.70;40.30;;;;;;10571234;27;20226;-72
2022/02/02 16:09:00;;;;;;;5.43;2.23;;;9.70;40.60;;;;;;10557416;27;20690;-72
2022/02/02 16:14:06;;;;;;;3.70;1.80;;;9.70;40.30;;;;;;10570502;27;20219;-71
2022/02/02 16:19:18;;;;;;;4.47;2.00;;;9.60;39.60;;;;;;10566463;27;20223;-72
2022/02/02 16:25:01;;;;;;;2.30;1.70;;;9.60;40.10;;;;;;10562217;28;20733;-72
2022/02/02 16:35:51;;;;;;;3.87;2.17;;;9.60;40.50;;;;;;10574306;27;20724;-72
2022/02/02 16:40:57;;;;;;;3.43;1.73;;;9.50;40.50;;;;;;10577680;27;20231;-72
2022/02/02 16:46:01;;;;;;;4.43;1.80;;;9.40;40.40;;;;;;10583301;27;20222;-72
2022/02/02 16:51:06;;;;;;;3.97;2.10;;;9.40;40.40;;;;;;10584683;27;20226;-71
2022/02/02 16:56:19;;;;;;;2.17;1.60;;;9.40;40.40;;;;;;10583126;27;20219;-71
2022/02/02 17:33:55;;;;;;;6.80;3.43;;;9.30;40.30;;;;;;10578040;27;20230;-71
2022/02/02 17:39:02;;;;;;;6.57;2.43;;;9.20;40.30;;;;;;10578282;27;20226;-71
2022/02/02 17:44:20;;;;;;;4.90;2.73;;;9.20;40.50;;;;;;10574262;27;20238;-71
2022/02/02 18:21:37;;;;;;;7.13;2.97;;;8.80;41.30;;;;;;10572104;27;20229;-70
2022/02/02 18:26:45;;;;;;;7.90;3.00;;;8.90;41.50;;;;;;10570242;27;20737;-71
2022/02/02 18:43:16;;;;;;;7.17;3.63;;;8.90;41.50;;;;;;10573129;27;20230;-71
2022/02/02 18:48:30;;;;;;;6.23;3.53;;;8.90;41.40;;;;;;10568295;27;20234;-71
2022/02/02 18:53:50;;;;;;;8.23;3.47;;;8.90;41.60;;;;;;10566637;27;20220;-71
2022/02/02 18:59:02;;;;;;;4.37;2.87;;;8.90;41.60;;;;;;10566521;27;20721;-71
2022/02/02 19:15:43;;;;;;;5.77;2.23;;;8.80;41.50;;;;;;10570311;27;20252;-70
2022/02/02 19:31:32;;;;;;;5.60;2.40;;;8.90;41.50;;;;;;10567989;27;20906;-67
2022/02/02 20:04:07;;;;;;;5.50;2.80;;;8.70;41.20;;;;;;10540151;27;20289;-68
2022/02/02 20:09:48;;;;;;;7.83;2.67;;;8.70;41.20;;;;;;10571406;27;20239;-68
2022/02/02 20:14:50;;;;;;;6.93;3.13;;;8.70;41.10;;;;;;10570101;27;20737;-68
2022/02/02 20:19:57;;;;;;;7.27;2.97;;;8.70;41.20;;;;;;10568589;27;20227;-68
2022/02/02 20:25:03;;;;;;;7.10;3.07;;;8.70;41.10;;;;;;10567935;28;20230;-67
2022/02/02 20:30:09;;;;;;;6.57;3.13;;;8.60;41.10;;;;;;10567361;28;20233;-68
2022/02/02 20:35:12;;;;;;;12.10;3.87;;;8.60;41.10;;;;;;10566733;28;20237;-67
2022/02/02 20:40:16;;;;;;;5.83;2.73;;;8.60;41.30;;;;;;10568708;28;20980;-68
2022/02/02 21:07:08;;;;;;;8.07;3.10;;;8.60;41.30;;;;;;10551351;28;20241;-68
2022/02/02 21:17:33;;;;;;;10.63;3.10;;;8.60;41.30;;;;;;10511271;27;20828;-68
2022/02/02 21:22:47;;;;;;;7.17;2.80;;;8.60;41.20;;;;;;10555895;27;20593;-68
2022/02/02 21:27:56;;;;;;;8.13;2.97;;;8.60;41.20;;;;;;10552358;27;20238;-68
2022/02/02 21:33:00;;;;;;;5.47;2.87;;;8.60;41.10;;;;;;10562373;27;20231;-68
2022/02/02 21:38:08;;;;;;;7.67;4.20;;;8.60;40.80;;;;;;10564255;27;20273;-68
2022/02/02 21:43:13;;;;;;;10.47;4.63;;;8.60;40.90;;;;;;10570966;27;20233;-68
2022/02/02 21:48:16;;;;;;;8.37;4.17;;;8.50;40.70;;;;;;10569105;27;20773;-68
2022/02/02 21:53:20;;;;;;;10.07;5.20;;;8.40;40.80;;;;;;10561401;27;20222;-67
2022/02/02 21:58:24;;;;;;;9.87;4.27;;;8.30;40.80;;;;;;10566036;27;20237;-68
2022/02/02 22:03:28;;;;;;;8.57;4.50;;;8.20;41.00;;;;;;10567288;27;20227;-67
2022/02/02 22:08:31;;;;;;;8.40;4.63;;;8.20;41.30;;;;;;10560317;27;20238;-68
2022/02/02 22:13:39;;;;;;;8.60;5.00;;;8.10;41.40;;;;;;10565249;27;20604;-67
2022/02/02 22:18:43;;;;;;;8.63;3.97;;;8.00;41.60;;;;;;10564958;27;20300;-67
2022/02/02 22:23:46;;;;;;;11.10;3.73;;;8.00;41.60;;;;;;10565908;27;20227;-67
2022/02/02 22:28:51;;;;;;;10.03;3.50;;;8.00;41.80;;;;;;10564330;27;20591;-67
2022/02/02 22:33:54;;;;;;;6.87;3.77;;;7.90;41.90;;;;;;10563635;27;20227;-67
2022/02/02 22:38:58;;;;;;;6.70;3.77;;;7.80;41.70;;;;;;10573083;27;20238;-67
2022/02/02 22:44:08;;;;;;;9.07;4.10;;;7.80;41.90;;;;;;10560335;27;20230;-67
2022/02/02 22:49:11;;;;;;;6.97;4.20;;;7.80;42.00;;;;;;10560376;27;20372;-67
2022/02/02 22:54:15;;;;;;;7.87;4.20;;;7.80;42.00;;;;;;10562765;27;20668;-68
2022/02/02 22:59:24;;;;;;;7.33;4.37;;;7.70;41.90;;;;;;10562433;27;20234;-67
2022/02/02 23:04:27;;;;;;;8.63;4.60;;;7.70;42.10;;;;;;10567273;27;20227;-68
2022/02/02 23:09:32;;;;;;;7.40;4.80;;;7.60;41.90;;;;;;10566993;27;20239;-68
2022/02/02 23:14:39;;;;;;;7.13;5.10;;;7.50;42.20;;;;;;10571454;27;20219;-68
2022/02/02 23:19:46;;;;;;;9.73;5.27;;;7.40;42.30;;;;;;10569655;27;20233;-67
2022/02/02 23:24:54;;;;;;;8.43;5.43;;;7.30;42.10;;;;;;10573513;27;20249;-67
2022/02/02 23:30:01;;;;;;;7.73;4.93;;;7.20;42.20;;;;;;10568515;27;20577;-68
2022/02/02 23:35:06;;;;;;;10.63;5.83;;;7.10;42.30;;;;;;10566863;27;20561;-67
2022/02/02 23:40:11;;;;;;;10.90;5.83;;;7.10;42.30;;;;;;10578348;27;20250;-68
2022/02/02 23:45:16;;;;;;;6.47;5.37;;;7.10;42.50;;;;;;10568191;27;20254;-68
2022/02/02 23:50:19;;;;;;;7.87;5.47;;;7.10;42.60;;;;;;10572186;27;20690;-67
2022/02/02 23:55:29;;;;;;;10.47;5.77;;;7.00;42.30;;;;;;10569648;27;20230;-67
